Terminal Aerodrome Forecast
Issued by NWS Wilmington, OH

Current Version | Previous Version | Text Only | Print | Product List | Glossary Off
Versions: 1 2 3 4 5 6 7 8 9 10

083
FTUS41 KILN 212336
TAFCMH
TAF
KCMH 212336Z 2200/2224 35008KT P6SM VCSH BKN080
     FM220500 01009KT P6SM VCSH OVC060
     FM221000 02008KT P6SM BKN070
     FM221400 04010KT P6SM VCSH BKN050
     FM221800 04009KT P6SM OVC040=

USA.gov is the U.S. government's official web portal to all federal, state and local government web resources and services.